Time;durP1;ratioP1;P1;durP2;ratioP2;P2;SDS_P1;SDS_P2;PMS_P1;PMS_P2;Temp;Humidity;BMP_temperature;BMP_pressure;BME280_temperature;BME280_humidity;BME280_pressure;Samples;Min_cycle;Max_cycle;Signal;HPM_P1;HPM_P2
2021/05/16 00:01:25;;;;;;;18.55;10.45;;;10.90;99.90;;;;;;5055406;28;20028;-88
2021/05/16 00:03:50;;;;;;;17.88;10.00;;;10.90;99.90;;;;;;5068623;28;20090;-88
2021/05/16 00:06:16;;;;;;;18.60;9.25;;;10.90;99.90;;;;;;5049964;28;20029;-88
2021/05/16 00:08:42;;;;;;;18.73;9.90;;;10.90;99.90;;;;;;5040290;28;20048;-88
2021/05/16 00:11:08;;;;;;;16.83;8.98;;;10.90;99.90;;;;;;5051958;28;20482;-88
2021/05/16 00:13:34;;;;;;;19.42;9.40;;;10.90;99.90;;;;;;5051824;28;20051;-87
2021/05/16 00:16:00;;;;;;;14.00;8.43;;;10.90;99.90;;;;;;5031782;28;20053;-88
2021/05/16 00:18:26;;;;;;;17.25;8.70;;;11.00;99.90;;;;;;5015274;28;20116;-86
2021/05/16 00:20:52;;;;;;;15.27;8.18;;;11.00;99.90;;;;;;5026536;28;20070;-87
2021/05/16 00:23:18;;;;;;;18.60;9.73;;;11.00;99.90;;;;;;5052749;28;20159;-87
2021/05/16 00:25:44;;;;;;;17.15;8.65;;;11.00;99.90;;;;;;5063584;28;20115;-87
2021/05/16 00:28:11;;;;;;;15.93;8.32;;;11.00;99.90;;;;;;5053144;28;20037;-87
2021/05/16 00:30:37;;;;;;;17.45;8.95;;;11.00;99.90;;;;;;5061510;28;20040;-87
2021/05/16 00:33:03;;;;;;;18.60;8.52;;;11.00;99.90;;;;;;5073996;28;20017;-87
2021/05/16 00:35:31;;;;;;;21.30;9.20;;;11.00;99.90;;;;;;5051550;28;20180;-86
2021/05/16 00:37:58;;;;;;;15.88;7.85;;;11.00;99.90;;;;;;5053271;28;20028;-86
2021/05/16 00:40:25;;;;;;;20.80;9.13;;;11.00;99.90;;;;;;5037893;28;20095;-86
2021/05/16 00:42:50;;;;;;;18.45;8.75;;;11.00;99.90;;;;;;5031367;28;20021;-87
2021/05/16 00:45:19;;;;;;;21.25;8.25;;;11.00;99.90;;;;;;5034481;28;20363;-87
2021/05/16 00:47:51;;;;;;;21.02;8.40;;;11.00;99.90;;;;;;5051059;28;20470;-88
2021/05/16 00:50:19;;;;;;;16.95;8.57;;;11.00;99.90;;;;;;5067037;28;20087;-87
2021/05/16 00:52:45;;;;;;;22.02;8.43;;;11.00;99.90;;;;;;5052196;28;20451;-87
2021/05/16 00:55:13;;;;;;;19.85;7.85;;;11.00;99.90;;;;;;5040691;28;20026;-87
2021/05/16 00:57:40;;;;;;;18.20;7.82;;;10.90;99.90;;;;;;5067726;28;20440;-87
2021/05/16 01:00:08;;;;;;;19.33;8.15;;;10.90;99.90;;;;;;5036754;28;20103;-87
2021/05/16 01:02:33;;;;;;;15.82;7.38;;;10.90;99.90;;;;;;5050967;28;20116;-87
2021/05/16 01:04:59;;;;;;;17.20;7.25;;;11.00;99.90;;;;;;5064295;28;20056;-87
2021/05/16 01:07:26;;;;;;;21.15;8.05;;;11.00;99.90;;;;;;5048997;28;20429;-87
2021/05/16 01:09:51;;;;;;;19.55;7.72;;;11.00;99.90;;;;;;5038979;28;20033;-87
2021/05/16 01:12:17;;;;;;;20.48;7.65;;;11.00;99.90;;;;;;5051434;28;20063;-87
2021/05/16 01:14:45;;;;;;;19.90;7.75;;;11.00;99.90;;;;;;5041638;28;20032;-87
2021/05/16 01:17:11;;;;;;;24.23;8.10;;;10.90;99.90;;;;;;5034415;28;20026;-87
2021/05/16 01:19:38;;;;;;;19.20;7.47;;;10.90;99.90;;;;;;5052011;28;20036;-87
2021/05/16 01:22:06;;;;;;;21.00;7.60;;;10.90;99.90;;;;;;5064882;28;20545;-87
2021/05/16 01:24:32;;;;;;;19.70;8.00;;;10.90;99.90;;;;;;5072374;28;20060;-86
2021/05/16 01:26:59;;;;;;;19.65;7.75;;;10.90;99.90;;;;;;5052614;28;20113;-86
2021/05/16 01:29:25;;;;;;;19.08;7.93;;;11.00;99.90;;;;;;5046716;28;20112;-86
2021/05/16 01:31:51;;;;;;;24.92;8.23;;;11.00;99.90;;;;;;5057816;28;20496;-87
2021/05/16 01:34:17;;;;;;;31.88;9.35;;;10.90;99.90;;;;;;5059125;28;20021;-86
2021/05/16 01:36:43;;;;;;;21.50;9.15;;;11.00;99.90;;;;;;5037733;28;20119;-87
2021/05/16 01:39:13;;;;;;;31.50;10.00;;;10.90;99.90;;;;;;5057581;28;20051;-86
2021/05/16 01:41:41;;;;;;;23.52;9.10;;;10.90;99.90;;;;;;5074045;28;20036;-87
2021/05/16 01:44:13;;;;;;;25.23;9.52;;;10.90;99.90;;;;;;5052676;28;20095;-86
2021/05/16 01:46:43;;;;;;;27.63;9.40;;;10.90;99.90;;;;;;5055285;28;20051;-86
2021/05/16 01:49:09;;;;;;;23.00;9.57;;;10.90;99.90;;;;;;5072104;28;20041;-87
2021/05/16 01:51:35;;;;;;;23.85;9.50;;;10.90;99.90;;;;;;5054079;28;20021;-86
2021/05/16 01:54:00;;;;;;;25.13;9.57;;;10.90;99.90;;;;;;5051846;28;20028;-87
2021/05/16 01:56:30;;;;;;;23.05;9.15;;;10.90;99.90;;;;;;5033958;28;20512;-87
2021/05/16 01:58:57;;;;;;;32.20;11.13;;;10.90;99.90;;;;;;5073149;28;20024;-87
2021/05/16 02:01:24;;;;;;;24.77;9.63;;;10.90;99.90;;;;;;5060612;28;20465;-86
2021/05/16 02:03:50;;;;;;;23.75;8.32;;;10.90;99.90;;;;;;5074973;28;20024;-86
2021/05/16 02:06:17;;;;;;;26.13;9.52;;;10.90;99.90;;;;;;5060441;28;20032;-86
2021/05/16 02:08:44;;;;;;;31.33;10.07;;;10.90;99.90;;;;;;5064320;28;20043;-86
2021/05/16 02:11:10;;;;;;;23.63;8.07;;;10.90;99.90;;;;;;5053639;28;20099;-86
2021/05/16 02:13:38;;;;;;;29.50;8.45;;;10.90;99.90;;;;;;5053612;28;20045;-86
2021/05/16 02:16:04;;;;;;;24.73;8.57;;;10.90;99.90;;;;;;5054437;28;20027;-85
2021/05/16 02:18:29;;;;;;;29.33;8.43;;;10.90;99.90;;;;;;5060076;28;20029;-85
2021/05/16 02:20:55;;;;;;;29.83;8.70;;;10.90;99.90;;;;;;5058364;28;20025;-86
2021/05/16 02:23:21;;;;;;;27.20;9.30;;;10.90;99.90;;;;;;5040067;28;20035;-86
2021/05/16 02:25:49;;;;;;;24.27;8.00;;;10.90;99.90;;;;;;5054886;28;20021;-87
2021/05/16 02:28:15;;;;;;;24.90;8.13;;;10.80;99.90;;;;;;5069133;28;20021;-87
2021/05/16 02:30:41;;;;;;;27.77;9.13;;;10.80;99.90;;;;;;5053398;28;20533;-86
2021/05/16 02:33:06;;;;;;;25.90;8.88;;;10.80;99.90;;;;;;5068190;28;20067;-86
2021/05/16 02:35:32;;;;;;;28.58;8.70;;;10.80;99.90;;;;;;5056427;28;20035;-86
2021/05/16 02:37:58;;;;;;;28.35;8.55;;;10.80;99.90;;;;;;5040546;28;20458;-86
2021/05/16 02:40:23;;;;;;;24.77;8.75;;;10.80;99.90;;;;;;5066985;28;20020;-86
2021/05/16 02:42:49;;;;;;;28.55;9.07;;;10.80;99.90;;;;;;5063390;28;20477;-86
2021/05/16 02:45:15;;;;;;;25.95;8.88;;;10.80;99.90;;;;;;5071424;28;20060;-86
2021/05/16 02:47:41;;;;;;;28.98;9.98;;;10.80;99.90;;;;;;5044390;28;20437;-86
2021/05/16 02:53:28;;;;;;;21.05;7.68;;;10.80;99.90;;;;;;5043426;28;20075;-86
2021/05/16 02:55:54;;;;;;;32.33;9.15;;;10.80;99.90;;;;;;5041744;28;20037;-87
2021/05/16 02:58:20;;;;;;;23.98;8.52;;;10.80;99.90;;;;;;5041071;28;20032;-86
2021/05/16 03:00:45;;;;;;;29.02;8.40;;;10.80;99.90;;;;;;5063405;28;20473;-86
2021/05/16 03:03:11;;;;;;;28.77;8.55;;;10.70;99.90;;;;;;5052665;28;20033;-86
2021/05/16 03:05:37;;;;;;;34.22;9.65;;;10.80;99.90;;;;;;5055303;28;20033;-86
2021/05/16 03:08:03;;;;;;;30.13;8.85;;;10.80;99.90;;;;;;5062782;28;20034;-86
2021/05/16 03:10:29;;;;;;;40.05;9.35;;;10.80;99.90;;;;;;5064517;28;20033;-85
2021/05/16 03:12:54;;;;;;;39.40;8.50;;;10.70;99.90;;;;;;5086751;28;20029;-85
2021/05/16 03:15:20;;;;;;;37.15;9.45;;;10.70;99.90;;;;;;5073054;28;20009;-85
2021/05/16 03:17:45;;;;;;;32.10;8.93;;;10.70;99.90;;;;;;5079965;28;20040;-86
2021/05/16 03:20:12;;;;;;;29.52;8.27;;;10.70;99.90;;;;;;5067759;28;20048;-85
2021/05/16 03:22:38;;;;;;;24.65;7.90;;;10.70;99.90;;;;;;5086533;28;20039;-85
2021/05/16 03:25:07;;;;;;;26.30;7.80;;;10.70;99.90;;;;;;5085189;28;20026;-86
2021/05/16 03:27:33;;;;;;;33.72;9.52;;;10.70;99.90;;;;;;5057712;28;20048;-86
2021/05/16 03:29:58;;;;;;;23.95;8.95;;;10.70;99.90;;;;;;5070870;28;20020;-85
2021/05/16 03:32:24;;;;;;;32.75;10.27;;;10.70;99.90;;;;;;5083330;28;20044;-85
2021/05/16 03:34:49;;;;;;;30.38;9.23;;;10.70;99.90;;;;;;5065589;28;20021;-85
2021/05/16 03:37:15;;;;;;;25.95;9.05;;;10.70;99.90;;;;;;5062925;28;20052;-85
2021/05/16 03:39:41;;;;;;;29.48;9.80;;;10.70;99.90;;;;;;5076907;28;20056;-85
2021/05/16 03:42:07;;;;;;;37.20;10.48;;;10.70;99.90;;;;;;5030065;28;20036;-86
2021/05/16 03:44:33;;;;;;;23.65;9.20;;;10.70;99.90;;;;;;5044575;28;20060;-85
2021/05/16 03:47:02;;;;;;;28.67;9.85;;;10.70;99.90;;;;;;5090861;28;20025;-85
2021/05/16 03:49:28;;;;;;;29.50;10.20;;;10.70;99.90;;;;;;5065601;28;20057;-86
2021/05/16 03:51:53;;;;;;;32.58;11.25;;;10.70;99.90;;;;;;5069376;28;20040;-86
2021/05/16 03:54:19;;;;;;;32.72;12.43;;;10.70;99.90;;;;;;5078783;28;20022;-85
2021/05/16 03:56:45;;;;;;;30.95;11.10;;;10.70;99.90;;;;;;5066926;28;20103;-85
2021/05/16 03:59:11;;;;;;;33.50;10.88;;;10.70;99.90;;;;;;5075719;28;20040;-86
2021/05/16 04:01:52;;;;;;;29.92;10.15;;;10.70;99.90;;;;;;5063661;28;20535;-85
2021/05/16 04:04:18;;;;;;;;;;;10.70;99.90;;;;;;5051219;23;20478;-85
2021/05/16 04:06:43;;;;;;;41.60;13.00;;;10.70;99.90;;;;;;5072447;28;19912;-85
2021/05/16 04:09:09;;;;;;;42.88;12.82;;;10.70;99.90;;;;;;5052377;28;20044;-85
2021/05/16 04:11:35;;;;;;;46.08;13.75;;;10.60;99.90;;;;;;5019570;28;20112;-86
2021/05/16 04:14:00;;;;;;;36.60;11.90;;;10.60;99.90;;;;;;5069628;28;20103;-85
2021/05/16 04:16:27;;;;;;;38.03;13.43;;;10.70;99.90;;;;;;5055827;28;20124;-85
2021/05/16 04:18:52;;;;;;;36.20;12.80;;;10.60;99.90;;;;;;5072440;28;20059;-85
2021/05/16 04:21:18;;;;;;;42.92;12.60;;;10.60;99.90;;;;;;5072372;28;20032;-85
2021/05/16 04:23:44;;;;;;;36.88;12.77;;;10.60;99.90;;;;;;5072341;28;20115;-85
2021/05/16 04:26:10;;;;;;;45.17;14.85;;;10.70;99.90;;;;;;5069747;28;20452;-85
2021/05/16 04:28:35;;;;;;;32.92;13.10;;;10.60;99.90;;;;;;5035695;28;20025;-85
2021/05/16 04:31:01;;;;;;;28.08;13.10;;;10.60;99.90;;;;;;5019199;28;20079;-85
2021/05/16 04:33:27;;;;;;;36.63;13.52;;;10.70;99.90;;;;;;5035632;28;20116;-84
2021/05/16 04:35:52;;;;;;;37.83;13.77;;;10.70;99.90;;;;;;5019238;28;20087;-85
2021/05/16 04:38:18;;;;;;;34.50;12.80;;;10.70;99.90;;;;;;5052162;28;20025;-85
2021/05/16 04:40:45;;;;;;;42.53;14.20;;;10.70;99.90;;;;;;5019162;28;20029;-84
2021/05/16 04:43:12;;;;;;;40.75;14.88;;;10.70;99.90;;;;;;5019472;28;20021;-85
2021/05/16 04:45:39;;;;;;;35.90;13.32;;;10.70;99.90;;;;;;5035623;28;20087;-85
2021/05/16 04:48:05;;;;;;;39.40;14.10;;;10.70;99.90;;;;;;5035570;28;20075;-85
2021/05/16 04:50:31;;;;;;;43.53;13.55;;;10.60;99.90;;;;;;5019344;28;20033;-86
2021/05/16 04:52:57;;;;;;;36.47;13.45;;;10.60;99.90;;;;;;5052085;28;20017;-85
2021/05/16 04:55:23;;;;;;;39.75;13.52;;;10.70;99.90;;;;;;5020327;28;20071;-86
2021/05/16 04:57:48;;;;;;;32.28;12.48;;;10.70;99.90;;;;;;5023000;28;20029;-85
2021/05/16 05:00:16;;;;;;;39.40;14.05;;;10.60;99.90;;;;;;5039448;28;20029;-85
2021/05/16 05:02:43;;;;;;;38.45;13.68;;;10.70;99.90;;;;;;5039584;28;20471;-87
2021/05/16 05:05:09;;;;;;;42.85;14.48;;;10.60;99.90;;;;;;5055809;28;20076;-85
2021/05/16 05:07:35;;;;;;;47.47;15.48;;;10.60;99.90;;;;;;5022756;28;20033;-86
2021/05/16 05:10:00;;;;;;;35.65;14.25;;;10.70;99.90;;;;;;5022709;28;20025;-85
2021/05/16 05:12:26;;;;;;;44.47;15.05;;;10.70;99.90;;;;;;5055816;28;20044;-87
2021/05/16 05:14:52;;;;;;;37.05;13.88;;;10.70;99.90;;;;;;5039368;28;20025;-85
2021/05/16 05:17:17;;;;;;;35.80;14.02;;;10.70;99.90;;;;;;5057477;28;20498;-86
2021/05/16 05:20:02;;;;;;;42.17;15.13;;;10.70;99.90;;;;;;5059051;28;20035;-85
2021/05/16 05:22:27;;;;;;;39.25;15.20;;;10.70;99.90;;;;;;5058946;28;20116;-85
2021/05/16 05:24:53;;;;;;;38.47;14.20;;;10.70;99.90;;;;;;5042830;28;20074;-86
2021/05/16 05:27:19;;;;;;;47.35;16.20;;;10.70;99.90;;;;;;5076119;28;20374;-86
2021/05/16 05:29:44;;;;;;;38.70;13.95;;;10.70;99.90;;;;;;5076166;28;20025;-86
2021/05/16 05:32:10;;;;;;;40.17;15.93;;;10.70;99.90;;;;;;5055430;28;20474;-87
2021/05/16 05:34:36;;;;;;;38.15;14.48;;;10.70;99.90;;;;;;5039567;28;20049;-86
2021/05/16 05:37:02;;;;;;;33.60;14.65;;;10.70;99.90;;;;;;5056094;28;20460;-85
2021/05/16 05:39:28;;;;;;;43.63;15.98;;;10.70;99.90;;;;;;5058765;28;20032;-86
2021/05/16 05:41:53;;;;;;;34.05;14.05;;;10.80;99.90;;;;;;5042164;28;20082;-86
2021/05/16 05:44:19;;;;;;;46.03;15.98;;;10.80;99.90;;;;;;5092378;28;20024;-87
2021/05/16 05:46:44;;;;;;;36.60;15.23;;;10.80;99.90;;;;;;5075815;28;20032;-86
2021/05/16 05:49:10;;;;;;;40.10;15.43;;;10.80;99.90;;;;;;5077049;28;20082;-86
2021/05/16 05:51:36;;;;;;;40.67;15.40;;;10.80;99.90;;;;;;5075516;28;20502;-86
2021/05/16 05:54:02;;;;;;;39.92;15.18;;;10.80;99.90;;;;;;5042276;28;20045;-86
2021/05/16 05:56:27;;;;;;;38.63;16.08;;;10.80;99.90;;;;;;5075044;28;20485;-85
2021/05/16 05:58:53;;;;;;;41.08;16.65;;;10.80;99.90;;;;;;5079945;28;20033;-86
2021/05/16 06:01:18;;;;;;;39.33;15.43;;;10.80;99.90;;;;;;5063717;28;20036;-85
2021/05/16 06:03:46;;;;;;;42.55;17.15;;;10.90;99.90;;;;;;5038066;28;20466;-85
2021/05/16 06:06:12;;;;;;;44.42;16.60;;;10.90;99.90;;;;;;5054344;28;20045;-85
2021/05/16 06:08:38;;;;;;;39.53;18.02;;;10.90;99.90;;;;;;5042941;28;20044;-86
2021/05/16 06:11:04;;;;;;;47.47;18.88;;;10.90;99.90;;;;;;5055989;28;20103;-86
2021/05/16 06:13:30;;;;;;;48.63;17.90;;;10.90;99.90;;;;;;5054427;28;20029;-85
2021/05/16 06:15:56;;;;;;;45.30;17.88;;;10.90;99.90;;;;;;5037932;28;20356;-85
2021/05/16 06:18:24;;;;;;;39.30;18.70;;;11.00;99.90;;;;;;5045140;28;20052;-85
2021/05/16 06:20:51;;;;;;;48.50;18.38;;;11.00;99.90;;;;;;5041839;28;20020;-85
2021/05/16 06:23:18;;;;;;;50.22;18.08;;;11.00;99.90;;;;;;5080341;28;20028;-85
2021/05/16 06:25:45;;;;;;;40.03;18.30;;;11.00;99.90;;;;;;5060806;28;20029;-85
2021/05/16 06:28:10;;;;;;;42.20;17.55;;;11.00;99.90;;;;;;5065633;28;20107;-84
2021/05/16 06:30:36;;;;;;;45.92;17.77;;;11.00;99.90;;;;;;5074024;28;20128;-85
2021/05/16 06:33:02;;;;;;;45.58;16.60;;;11.10;99.90;;;;;;5074076;28;20029;-85
2021/05/16 06:35:28;;;;;;;42.08;16.80;;;11.10;99.90;;;;;;5073859;28;20025;-85
2021/05/16 06:37:53;;;;;;;38.13;16.50;;;11.10;99.90;;;;;;5070597;28;20123;-84
2021/05/16 06:40:19;;;;;;;35.67;15.73;;;11.10;99.90;;;;;;5037531;28;20123;-85
2021/05/16 06:42:45;;;;;;;41.35;16.50;;;11.20;99.90;;;;;;5021036;28;20140;-85
2021/05/16 06:45:12;;;;;;;33.95;14.98;;;11.10;99.90;;;;;;5053874;28;20053;-85
2021/05/16 06:47:38;;;;;;;38.25;14.63;;;11.20;99.90;;;;;;5070574;28;20178;-86
2021/05/16 06:50:08;;;;;;;31.90;14.07;;;11.20;99.90;;;;;;5075116;28;20025;-85
2021/05/16 06:52:34;;;;;;;44.23;15.83;;;11.20;99.90;;;;;;5086219;28;20024;-85
2021/05/16 06:55:00;;;;;;;38.13;14.88;;;11.20;99.90;;;;;;5061561;28;20115;-85
2021/05/16 06:57:26;;;;;;;36.88;13.93;;;11.20;99.90;;;;;;5057076;28;20056;-85
2021/05/16 06:59:52;;;;;;;40.95;13.65;;;11.30;99.90;;;;;;5073922;28;20028;-86
2021/05/16 07:02:17;;;;;;;34.00;13.27;;;11.30;99.90;;;;;;5073880;28;20029;-85
2021/05/16 07:04:46;;;;;;;35.38;13.02;;;11.30;99.90;;;;;;5073334;28;20043;-87
2021/05/16 07:07:12;;;;;;;35.03;12.80;;;11.40;99.90;;;;;;5075097;28;20029;-86
2021/05/16 07:09:38;;;;;;;45.20;13.55;;;11.40;99.90;;;;;;5073709;28;20031;-86
2021/05/16 07:12:04;;;;;;;29.83;11.82;;;11.50;99.90;;;;;;5073344;28;20028;-85
2021/05/16 07:14:30;;;;;;;33.15;13.48;;;11.50;99.90;;;;;;5054903;28;20020;-86
2021/05/16 07:16:56;;;;;;;31.38;12.00;;;11.60;99.90;;;;;;5053778;28;20040;-86
2021/05/16 07:19:23;;;;;;;38.00;13.27;;;11.60;99.90;;;;;;5058326;28;20052;-86
2021/05/16 07:21:49;;;;;;;36.13;13.25;;;11.60;99.90;;;;;;5073713;28;20493;-86
2021/05/16 07:24:14;;;;;;;33.17;12.50;;;11.60;99.90;;;;;;5053641;28;20039;-86
2021/05/16 07:26:40;;;;;;;28.48;12.70;;;11.60;99.90;;;;;;5020923;28;20035;-87
2021/05/16 07:29:06;;;;;;;31.27;13.18;;;11.60;99.90;;;;;;5051912;28;20064;-87
2021/05/16 07:31:32;;;;;;;28.17;12.40;;;11.60;99.90;;;;;;5073492;28;20021;-88
2021/05/16 07:33:57;;;;;;;34.03;11.65;;;11.70;99.90;;;;;;5057049;28;20036;-88
2021/05/16 07:36:23;;;;;;;27.08;11.65;;;11.70;99.90;;;;;;5057033;28;20090;-88
2021/05/16 07:38:49;;;;;;;27.13;10.68;;;11.70;99.90;;;;;;5074321;28;20028;-86
2021/05/16 07:44:36;;;;;;;26.98;11.00;;;11.60;99.90;;;;;;5076852;28;20084;-88
2021/05/16 07:47:02;;;;;;;30.13;11.52;;;11.60;99.90;;;;;;5057900;28;20478;-86
2021/05/16 07:49:27;;;;;;;30.50;12.30;;;11.60;99.90;;;;;;5040174;28;20024;-85
2021/05/16 07:51:53;;;;;;;28.05;12.23;;;11.60;99.90;;;;;;5073884;28;20438;-87
2021/05/16 07:54:19;;;;;;;25.75;11.73;;;11.60;99.90;;;;;;5057218;28;20024;-88
2021/05/16 07:56:45;;;;;;;32.15;13.55;;;11.60;99.90;;;;;;5073365;28;20469;-87
2021/05/16 07:59:10;;;;;;;35.28;13.77;;;11.70;99.90;;;;;;5056886;28;20054;-87
2021/05/16 08:01:37;;;;;;;33.95;14.48;;;11.70;99.90;;;;;;5039759;28;20025;-88
2021/05/16 08:04:02;;;;;;;40.20;15.30;;;11.70;99.90;;;;;;5073374;28;20032;-88
2021/05/16 08:06:28;;;;;;;34.05;14.13;;;11.70;99.70;;;;;;5056200;28;20053;-88
2021/05/16 08:08:54;;;;;;;27.75;14.75;;;11.70;99.50;;;;;;5072831;28;20119;-86
2021/05/16 08:11:21;;;;;;;32.10;15.30;;;11.70;99.80;;;;;;5068570;28;20017;-86
2021/05/16 08:13:47;;;;;;;30.75;14.65;;;11.70;99.90;;;;;;5039600;28;20029;-86
2021/05/16 08:16:13;;;;;;;29.90;15.32;;;11.80;99.90;;;;;;5056201;28;20074;-87
2021/05/16 08:18:39;;;;;;;34.08;14.65;;;11.80;99.90;;;;;;5072524;28;20028;-86
2021/05/16 08:21:05;;;;;;;31.85;15.32;;;11.80;99.70;;;;;;5054217;28;20021;-87
2021/05/16 08:23:31;;;;;;;30.15;16.02;;;11.80;99.70;;;;;;5047626;28;20026;-88
2021/05/16 08:25:57;;;;;;;33.45;15.60;;;11.90;99.50;;;;;;5073060;28;20382;-86
2021/05/16 08:28:25;;;;;;;32.05;15.40;;;11.90;99.10;;;;;;5056142;28;20075;-87
2021/05/16 08:30:51;;;;;;;30.10;15.20;;;11.90;99.20;;;;;;5052440;28;20128;-88
2021/05/16 08:33:16;;;;;;;32.30;15.30;;;11.90;99.20;;;;;;5036086;28;20051;-87
2021/05/16 08:35:42;;;;;;;29.60;15.63;;;12.00;99.40;;;;;;5052550;28;20017;-86
2021/05/16 08:38:08;;;;;;;27.17;15.68;;;12.00;99.20;;;;;;5058544;28;20036;-87
2021/05/16 08:40:34;;;;;;;28.13;14.80;;;12.00;99.20;;;;;;5072617;28;20056;-87
2021/05/16 08:43:04;;;;;;;31.45;14.73;;;12.00;99.30;;;;;;5073802;28;20025;-87
2021/05/16 08:45:30;;;;;;;32.10;16.13;;;12.10;99.60;;;;;;5055993;28;20024;-87
2021/05/16 08:47:56;;;;;;;29.33;15.60;;;12.10;99.40;;;;;;5055988;28;20362;-87
2021/05/16 08:50:23;;;;;;;27.92;15.88;;;12.10;99.60;;;;;;5056242;28;20028;-87
2021/05/16 08:52:49;;;;;;;32.97;16.98;;;12.10;99.30;;;;;;5083731;28;20123;-87
2021/05/16 08:55:16;;;;;;;35.90;16.10;;;12.10;99.30;;;;;;5072730;28;20048;-87
2021/05/16 08:57:42;;;;;;;30.02;15.57;;;12.20;99.10;;;;;;5080113;28;20025;-87
2021/05/16 09:00:11;;;;;;;37.53;16.50;;;12.20;99.30;;;;;;5073521;28;20079;-87
2021/05/16 09:02:58;;;;;;;31.33;16.25;;;12.30;99.40;;;;;;5072148;28;20052;-88
2021/05/16 09:05:30;;;;;;;30.00;16.42;;;12.30;99.50;;;;;;5073112;28;20040;-87
2021/05/16 09:08:06;;;;;;;29.33;15.30;;;12.40;99.70;;;;;;5073445;28;20031;-88
2021/05/16 09:10:33;;;;;;;28.33;15.15;;;12.50;99.30;;;;;;5058404;28;20024;-87
2021/05/16 09:13:18;;;;;;;27.98;15.60;;;12.60;99.00;;;;;;5063062;28;20070;-87
2021/05/16 09:16:16;;;;;;;29.33;13.40;;;12.70;97.90;;;;;;5072216;28;20027;-88
2021/05/16 09:18:56;;;;;;;37.42;13.45;;;12.70;97.70;;;;;;5072088;28;20493;-86
2021/05/16 09:21:35;;;;;;;28.85;12.98;;;12.80;97.50;;;;;;5084219;28;20048;-85
2021/05/16 09:24:04;;;;;;;29.77;13.25;;;12.90;97.30;;;;;;5038511;28;20087;-86
2021/05/16 09:26:41;;;;;;;25.33;12.98;;;12.90;97.80;;;;;;5073607;28;20032;-86
2021/05/16 09:29:41;;;;;;;29.30;12.55;;;12.90;98.00;;;;;;5070460;28;20016;-86
2021/05/16 09:32:08;;;;;;;21.95;11.98;;;12.90;97.80;;;;;;5071684;28;20477;-86
2021/05/16 09:34:35;;;;;;;23.73;12.50;;;13.00;96.80;;;;;;5062759;28;20048;-86
2021/05/16 09:37:01;;;;;;;25.67;11.65;;;13.00;96.60;;;;;;5068661;28;20039;-87
2021/05/16 09:39:32;;;;;;;20.13;10.27;;;13.00;96.20;;;;;;5050022;28;20052;-85
2021/05/16 09:42:07;;;;;;;21.45;11.63;;;13.00;95.30;;;;;;5071985;28;20377;-85
2021/05/16 09:44:39;;;;;;;21.65;10.35;;;13.00;95.60;;;;;;5053816;28;20545;-85
2021/05/16 09:47:13;;;;;;;22.05;10.00;;;13.10;96.00;;;;;;5078243;28;20477;-85
2021/05/16 09:49:40;;;;;;;16.02;8.05;;;13.20;96.00;;;;;;5090172;28;20024;-85
2021/05/16 09:52:11;;;;;;;16.70;7.10;;;13.30;94.80;;;;;;5077026;28;20028;-86
2021/05/16 09:54:52;;;;;;;18.13;6.85;;;13.30;94.70;;;;;;5089397;28;20488;-85
2021/05/16 09:57:34;;;;;;;18.52;6.32;;;13.40;94.30;;;;;;5073589;28;20033;-86
2021/05/16 10:00:01;;;;;;;17.70;6.68;;;13.40;94.60;;;;;;5050864;28;20031;-86
2021/05/16 10:02:28;;;;;;;14.55;6.05;;;13.50;94.20;;;;;;5074782;28;20050;-86
2021/05/16 10:05:00;;;;;;;19.40;6.05;;;13.50;93.40;;;;;;5075509;22;20048;-86
2021/05/16 10:07:26;;;;;;;15.75;6.03;;;13.60;93.10;;;;;;5058381;28;20024;-88
2021/05/16 10:09:53;;;;;;;14.18;5.13;;;13.70;93.70;;;;;;5075099;28;20115;-86
2021/05/16 10:12:20;;;;;;;15.35;5.57;;;13.70;94.70;;;;;;5041994;28;20016;-86
2021/05/16 10:14:53;;;;;;;12.75;5.20;;;13.80;94.70;;;;;;5067383;28;20077;-86
2021/05/16 10:17:20;;;;;;;16.90;5.40;;;13.80;92.50;;;;;;5078451;28;20032;-87
2021/05/16 10:19:46;;;;;;;15.82;5.13;;;13.90;92.80;;;;;;5053235;28;20029;-86
2021/05/16 10:22:16;;;;;;;14.85;5.82;;;13.90;92.60;;;;;;5041723;28;20029;-86
2021/05/16 10:24:47;;;;;;;15.43;4.82;;;14.00;92.30;;;;;;5076060;28;20031;-87
2021/05/16 10:27:27;;;;;;;16.73;5.25;;;14.00;92.30;;;;;;5076047;28;20104;-87
2021/05/16 10:30:02;;;;;;;11.73;5.18;;;14.00;91.30;;;;;;5039363;28;20111;-87
2021/05/16 10:32:34;;;;;;;18.30;4.75;;;14.10;92.90;;;;;;5070067;28;20021;-89
2021/05/16 10:35:07;;;;;;;12.38;3.67;;;14.10;92.70;;;;;;5075631;28;20056;-85
2021/05/16 10:37:43;;;;;;;18.58;4.30;;;14.20;92.80;;;;;;5025575;28;20032;-85
2021/05/16 10:40:11;;;;;;;17.08;4.53;;;14.30;93.00;;;;;;5057678;28;20032;-86
2021/05/16 10:42:43;;;;;;;11.05;3.35;;;14.40;92.80;;;;;;5075429;28;20027;-85
2021/05/16 10:45:17;;;;;;;14.25;3.88;;;14.40;93.30;;;;;;5041681;28;20413;-86
2021/05/16 10:47:44;;;;;;;11.93;3.42;;;14.50;91.90;;;;;;5075056;28;20028;-86
2021/05/16 10:50:33;;;;;;;10.82;3.10;;;14.50;91.80;;;;;;5075265;28;20021;-85
2021/05/16 10:53:02;;;;;;;12.27;4.07;;;14.50;92.50;;;;;;5057033;28;20023;-86
2021/05/16 10:55:38;;;;;;;11.27;3.53;;;14.50;92.50;;;;;;5075128;28;20470;-87
2021/05/16 10:58:05;;;;;;;12.02;3.78;;;14.60;93.20;;;;;;5075016;28;20056;-86
2021/05/16 11:00:40;;;;;;;14.48;3.80;;;14.70;92.60;;;;;;5057235;28;20020;-86
2021/05/16 11:03:13;;;;;;;10.80;3.53;;;14.70;92.20;;;;;;5041545;28;20051;-85
2021/05/16 11:05:47;;;;;;;16.35;3.67;;;14.70;92.90;;;;;;5073723;28;20037;-86
2021/05/16 11:08:16;;;;;;;13.68;3.60;;;14.80;91.40;;;;;;5073544;28;20024;-85
2021/05/16 11:10:42;;;;;;;11.55;4.35;;;14.80;92.20;;;;;;5071188;28;20077;-86
2021/05/16 11:13:12;;;;;;;11.90;3.53;;;14.90;92.90;;;;;;5040553;28;20017;-87
2021/05/16 11:15:46;;;;;;;13.30;4.40;;;15.00;93.20;;;;;;5057200;28;20472;-87
2021/05/16 11:18:17;;;;;;;12.10;4.53;;;15.10;93.10;;;;;;5056843;28;20027;-86
2021/05/16 11:20:43;;;;;;;9.70;3.75;;;15.10;92.30;;;;;;5058308;28;20108;-86
2021/05/16 11:23:09;;;;;;;13.65;4.65;;;15.10;92.90;;;;;;5039825;28;20039;-86
2021/05/16 11:25:34;;;;;;;12.80;4.25;;;15.20;93.10;;;;;;5041968;28;20025;-85
2021/05/16 11:28:09;;;;;;;11.48;4.05;;;15.10;93.60;;;;;;5052868;28;20035;-87
2021/05/16 11:30:36;;;;;;;11.07;3.80;;;15.10;94.10;;;;;;5049264;28;20052;-87
2021/05/16 11:33:02;;;;;;;9.35;3.80;;;15.10;94.40;;;;;;5056238;28;20473;-86
2021/05/16 11:35:28;;;;;;;12.40;4.57;;;15.10;95.00;;;;;;5039394;28;20031;-86
2021/05/16 11:37:58;;;;;;;12.85;4.05;;;15.10;94.70;;;;;;5022959;28;20032;-86
2021/05/16 11:40:31;;;;;;;15.60;4.40;;;15.10;94.90;;;;;;5056332;28;20028;-86
2021/05/16 11:43:01;;;;;;;14.43;4.60;;;15.10;93.70;;;;;;5052791;28;20021;-86
2021/05/16 11:45:30;;;;;;;10.68;4.93;;;15.10;93.00;;;;;;5053727;28;20092;-86
2021/05/16 11:47:55;;;;;;;15.23;5.00;;;15.00;93.80;;;;;;5057501;28;20025;-85
2021/05/16 11:50:40;;;;;;;12.25;3.80;;;14.90;93.50;;;;;;5050614;28;20492;-85
2021/05/16 11:53:06;;;;;;;6.63;2.75;;;14.70;93.90;;;;;;5041518;28;20024;-85
2021/05/16 11:55:32;;;;;;;5.60;1.50;;;14.50;94.10;;;;;;5040541;28;20016;-86
2021/05/16 11:57:58;;;;;;;4.50;1.50;;;14.30;92.80;;;;;;5056066;28;20023;-85
2021/05/16 12:00:28;;;;;;;3.05;1.48;;;14.10;93.50;;;;;;5056422;28;20103;-86
2021/05/16 12:03:07;;;;;;;4.20;1.48;;;13.90;94.20;;;;;;5056575;28;20474;-85
2021/05/16 12:05:32;;;;;;;5.15;1.80;;;13.80;94.00;;;;;;5054869;28;20048;-86
2021/05/16 12:07:58;;;;;;;6.63;2.25;;;13.60;94.60;;;;;;5020180;28;20029;-85
2021/05/16 12:10:24;;;;;;;6.68;2.80;;;13.60;95.20;;;;;;5039442;28;20021;-84
2021/05/16 12:12:50;;;;;;;6.90;2.85;;;13.50;96.10;;;;;;5030335;28;20036;-85
2021/05/16 12:15:24;;;;;;;5.55;2.35;;;13.50;96.70;;;;;;5022119;28;20103;-84
2021/05/16 12:17:49;;;;;;;6.25;2.50;;;13.50;97.20;;;;;;5060654;28;20035;-85
2021/05/16 12:20:23;;;;;;;9.27;3.65;;;13.60;97.60;;;;;;5046971;28;20033;-84
2021/05/16 12:23:06;;;;;;;8.30;3.67;;;13.70;97.90;;;;;;5035153;28;20021;-84
2021/05/16 12:25:31;;;;;;;6.97;3.65;;;13.90;98.20;;;;;;5018857;28;20033;-85
2021/05/16 12:28:01;;;;;;;9.38;3.72;;;14.00;98.50;;;;;;5054186;28;20032;-84
2021/05/16 12:30:27;;;;;;;9.02;3.80;;;14.10;98.80;;;;;;5046616;28;20029;-84
2021/05/16 12:32:53;;;;;;;8.07;3.95;;;14.20;98.80;;;;;;5018970;28;20540;-84
2021/05/16 12:35:19;;;;;;;7.60;3.70;;;14.30;98.90;;;;;;5030185;28;20056;-84
2021/05/16 12:37:46;;;;;;;7.88;3.40;;;14.50;99.40;;;;;;5019183;28;20035;-85
2021/05/16 12:40:24;;;;;;;5.75;3.92;;;14.60;99.30;;;;;;5027780;28;20029;-84
2021/05/16 12:43:02;;;;;;;6.43;3.10;;;14.80;99.50;;;;;;5072984;28;20024;-84